sensor_id;sensor_type;location;lat;lon;timestamp;temperature;humidity
41557;DHT22;27720;51.992;5.890;2022-11-15T18:19:10;11.20;99.90
41557;DHT22;27720;51.992;5.890;2022-11-15T18:21:43;11.40;99.90
41557;DHT22;27720;51.992;5.890;2022-11-15T18:24:28;11.80;99.90
41557;DHT22;27720;51.992;5.890;2022-11-15T18:26:55;12.10;99.90
41557;DHT22;27720;51.992;5.890;2022-11-15T18:29:23;12.40;99.90
41557;DHT22;27720;51.992;5.890;2022-11-15T18:31:50;12.70;99.90
41557;DHT22;27720;51.992;5.890;2022-11-15T18:34:21;12.90;99.90
41557;DHT22;27720;51.992;5.890;2022-11-15T18:36:49;13.00;99.90
41557;DHT22;27720;51.992;5.890;2022-11-15T18:39:15;13.10;99.90
41557;DHT22;27720;51.992;5.890;2022-11-15T18:41:42;13.30;99.90
41557;DHT22;27720;51.992;5.890;2022-11-15T18:44:08;13.30;99.90
41557;DHT22;27720;51.992;5.890;2022-11-15T18:46:34;13.40;99.90
41557;DHT22;27720;51.992;5.890;2022-11-15T18:49:01;13.40;99.90
41557;DHT22;27720;51.992;5.890;2022-11-15T18:51:29;13.40;99.90
41557;DHT22;27720;51.992;5.890;2022-11-15T18:53:58;13.50;99.90
41557;DHT22;27720;51.992;5.890;2022-11-15T18:56:26;13.50;99.90
41557;DHT22;27720;51.992;5.890;2022-11-15T18:59:10;13.50;99.90
41557;DHT22;27720;51.992;5.890;2022-11-15T19:01:40;13.50;99.90
41557;DHT22;27720;51.992;5.890;2022-11-15T19:04:15;13.50;99.90
41557;DHT22;27720;51.992;5.890;2022-11-15T19:06:47;13.60;99.90
41557;DHT22;27720;51.992;5.890;2022-11-15T19:09:15;13.50;99.90
41557;DHT22;27720;51.992;5.890;2022-11-15T19:11:42;13.50;99.90
41557;DHT22;27720;51.992;5.890;2022-11-15T19:14:10;13.50;99.90
41557;DHT22;27720;51.992;5.890;2022-11-15T19:16:39;13.50;99.90
41557;DHT22;27720;51.992;5.890;2022-11-15T19:19:10;13.50;99.90
41557;DHT22;27720;51.992;5.890;2022-11-15T19:21:38;13.50;99.90
41557;DHT22;27720;51.992;5.890;2022-11-15T19:24:04;13.50;99.90
41557;DHT22;27720;51.992;5.890;2022-11-15T19:26:30;13.50;99.90
41557;DHT22;27720;51.992;5.890;2022-11-15T19:29:00;13.50;99.90
41557;DHT22;27720;51.992;5.890;2022-11-15T19:31:27;13.50;99.90
41557;DHT22;27720;51.992;5.890;2022-11-15T19:33:54;13.40;99.90
41557;DHT22;27720;51.992;5.890;2022-11-15T19:36:22;13.40;99.90
41557;DHT22;27720;51.992;5.890;2022-11-15T19:38:49;13.40;99.90
41557;DHT22;27720;51.992;5.890;2022-11-15T19:41:17;13.40;99.90
41557;DHT22;27720;51.992;5.890;2022-11-15T19:43:43;13.50;99.90
41557;DHT22;27720;51.992;5.890;2022-11-15T19:46:13;13.40;99.90
41557;DHT22;27720;51.992;5.890;2022-11-15T19:48:42;13.50;99.90
41557;DHT22;27720;51.992;5.890;2022-11-15T19:51:14;13.40;99.90
41557;DHT22;27720;51.992;5.890;2022-11-15T19:53:40;13.40;99.90
41557;DHT22;27720;51.992;5.890;2022-11-15T19:56:10;13.40;99.90
41557;DHT22;27720;51.992;5.890;2022-11-15T19:58:40;13.40;99.90
41557;DHT22;27720;51.992;5.890;2022-11-15T20:03:50;13.40;99.90
41557;DHT22;27720;51.992;5.890;2022-11-15T20:06:21;13.40;99.90
41557;DHT22;27720;51.992;5.890;2022-11-15T20:08:48;13.40;99.90
41557;DHT22;27720;51.992;5.890;2022-11-15T20:11:15;13.50;99.90
41557;DHT22;27720;51.992;5.890;2022-11-15T20:13:42;13.40;99.90
41557;DHT22;27720;51.992;5.890;2022-11-15T20:16:13;13.40;99.90
41557;DHT22;27720;51.992;5.890;2022-11-15T20:18:42;13.40;99.90
41557;DHT22;27720;51.992;5.890;2022-11-15T20:21:09;13.40;99.90
41557;DHT22;27720;51.992;5.890;2022-11-15T20:23:35;13.40;99.90
41557;DHT22;27720;51.992;5.890;2022-11-15T20:26:01;13.40;99.90
41557;DHT22;27720;51.992;5.890;2022-11-15T20:28:27;13.40;99.90
41557;DHT22;27720;51.992;5.890;2022-11-15T20:30:58;13.40;99.90
41557;DHT22;27720;51.992;5.890;2022-11-15T20:33:24;13.40;99.90
41557;DHT22;27720;51.992;5.890;2022-11-15T20:35:53;13.30;99.90
41557;DHT22;27720;51.992;5.890;2022-11-15T20:38:20;13.30;99.90
41557;DHT22;27720;51.992;5.890;2022-11-15T20:40:48;13.30;99.90
41557;DHT22;27720;51.992;5.890;2022-11-15T20:43:15;13.40;99.90
41557;DHT22;27720;51.992;5.890;2022-11-15T20:45:46;13.40;99.90
41557;DHT22;27720;51.992;5.890;2022-11-15T20:48:13;13.40;99.90
41557;DHT22;27720;51.992;5.890;2022-11-15T20:50:39;13.40;99.90
41557;DHT22;27720;51.992;5.890;2022-11-15T20:53:06;13.40;99.90
41557;DHT22;27720;51.992;5.890;2022-11-15T20:55:31;13.40;99.90
41557;DHT22;27720;51.992;5.890;2022-11-15T20:58:00;13.40;99.90
41557;DHT22;27720;51.992;5.890;2022-11-15T21:00:25;13.40;99.90
41557;DHT22;27720;51.992;5.890;2022-11-15T21:02:57;13.40;99.90
41557;DHT22;27720;51.992;5.890;2022-11-15T21:05:23;13.40;99.90
41557;DHT22;27720;51.992;5.890;2022-11-15T21:07:49;13.40;99.90
41557;DHT22;27720;51.992;5.890;2022-11-15T21:10:15;13.40;99.90
41557;DHT22;27720;51.992;5.890;2022-11-15T21:12:59;13.30;99.90
41557;DHT22;27720;51.992;5.890;2022-11-15T21:15:25;13.30;99.90
41557;DHT22;27720;51.992;5.890;2022-11-15T21:17:50;13.30;99.90
41557;DHT22;27720;51.992;5.890;2022-11-15T21:20:19;13.30;99.90
41557;DHT22;27720;51.992;5.890;2022-11-15T21:22:47;13.40;99.90
41557;DHT22;27720;51.992;5.890;2022-11-15T21:25:14;13.30;99.90
41557;DHT22;27720;51.992;5.890;2022-11-15T21:27:39;13.20;99.90
41557;DHT22;27720;51.992;5.890;2022-11-15T21:30:05;13.30;99.90
41557;DHT22;27720;51.992;5.890;2022-11-15T21:32:31;13.30;99.90
41557;DHT22;27720;51.992;5.890;2022-11-15T21:35:00;13.30;99.90
41557;DHT22;27720;51.992;5.890;2022-11-15T21:37:25;13.30;99.90
41557;DHT22;27720;51.992;5.890;2022-11-15T21:39:51;13.30;99.90
41557;DHT22;27720;51.992;5.890;2022-11-15T21:42:17;13.30;99.90
41557;DHT22;27720;51.992;5.890;2022-11-15T21:44:43;13.30;99.90
41557;DHT22;27720;51.992;5.890;2022-11-15T21:47:08;13.30;99.90
41557;DHT22;27720;51.992;5.890;2022-11-15T21:49:34;13.40;99.90
41557;DHT22;27720;51.992;5.890;2022-11-15T21:52:00;13.30;99.90
41557;DHT22;27720;51.992;5.890;2022-11-15T21:54:26;13.30;99.90
41557;DHT22;27720;51.992;5.890;2022-11-15T21:56:54;13.40;99.90
41557;DHT22;27720;51.992;5.890;2022-11-15T21:59:20;13.40;99.90
41557;DHT22;27720;51.992;5.890;2022-11-15T22:01:48;13.40;99.90
41557;DHT22;27720;51.992;5.890;2022-11-15T22:04:33;13.40;99.90
41557;DHT22;27720;51.992;5.890;2022-11-15T22:06:58;13.40;99.90
41557;DHT22;27720;51.992;5.890;2022-11-15T22:09:24;13.40;99.90
41557;DHT22;27720;51.992;5.890;2022-11-15T22:11:50;13.40;99.90
41557;DHT22;27720;51.992;5.890;2022-11-15T22:14:16;13.40;99.90
41557;DHT22;27720;51.992;5.890;2022-11-15T22:16:42;13.40;99.90
41557;DHT22;27720;51.992;5.890;2022-11-15T22:19:07;13.40;99.90
41557;DHT22;27720;51.992;5.890;2022-11-15T22:21:33;13.40;99.90
41557;DHT22;27720;51.992;5.890;2022-11-15T22:23:59;13.40;99.90
41557;DHT22;27720;51.992;5.890;2022-11-15T22:26:26;13.30;99.90
41557;DHT22;27720;51.992;5.890;2022-11-15T22:28:51;13.40;99.90
41557;DHT22;27720;51.992;5.890;2022-11-15T22:31:18;13.40;99.90
41557;DHT22;27720;51.992;5.890;2022-11-15T22:33:43;13.40;99.90
41557;DHT22;27720;51.992;5.890;2022-11-15T22:36:10;13.40;99.90
41557;DHT22;27720;51.992;5.890;2022-11-15T22:38:36;13.40;99.90
41557;DHT22;27720;51.992;5.890;2022-11-15T22:41:02;13.40;99.90
41557;DHT22;27720;51.992;5.890;2022-11-15T22:43:30;13.40;99.90
41557;DHT22;27720;51.992;5.890;2022-11-15T22:45:58;13.40;99.90
41557;DHT22;27720;51.992;5.890;2022-11-15T22:48:26;13.40;99.90
41557;DHT22;27720;51.992;5.890;2022-11-15T22:50:53;13.40;99.90
41557;DHT22;27720;51.992;5.890;2022-11-15T22:53:19;13.40;99.90
41557;DHT22;27720;51.992;5.890;2022-11-15T22:55:56;13.40;99.90
41557;DHT22;27720;51.992;5.890;2022-11-15T22:58:24;13.40;99.90
41557;DHT22;27720;51.992;5.890;2022-11-15T23:00:51;13.40;99.90
41557;DHT22;27720;51.992;5.890;2022-11-15T23:03:18;13.40;99.90
41557;DHT22;27720;51.992;5.890;2022-11-15T23:05:45;13.40;99.90
41557;DHT22;27720;51.992;5.890;2022-11-15T23:08:11;13.40;99.90
41557;DHT22;27720;51.992;5.890;2022-11-15T23:10:38;13.40;99.90
41557;DHT22;27720;51.992;5.890;2022-11-15T23:13:24;13.40;99.90
41557;DHT22;27720;51.992;5.890;2022-11-15T23:15:51;13.40;99.90
41557;DHT22;27720;51.992;5.890;2022-11-15T23:18:37;13.40;99.90
41557;DHT22;27720;51.992;5.890;2022-11-15T23:21:14;13.30;99.90
41557;DHT22;27720;51.992;5.890;2022-11-15T23:23:40;13.40;99.90
41557;DHT22;27720;51.992;5.890;2022-11-15T23:26:09;13.40;99.90
41557;DHT22;27720;51.992;5.890;2022-11-15T23:28:39;13.40;99.90
41557;DHT22;27720;51.992;5.890;2022-11-15T23:31:06;13.40;99.90
41557;DHT22;27720;51.992;5.890;2022-11-15T23:33:50;13.40;99.90
41557;DHT22;27720;51.992;5.890;2022-11-15T23:36:22;13.40;99.90
41557;DHT22;27720;51.992;5.890;2022-11-15T23:38:48;13.40;99.90
41557;DHT22;27720;51.992;5.890;2022-11-15T23:41:13;13.40;99.90
41557;DHT22;27720;51.992;5.890;2022-11-15T23:43:39;13.40;99.90
41557;DHT22;27720;51.992;5.890;2022-11-15T23:46:05;13.40;99.90
41557;DHT22;27720;51.992;5.890;2022-11-15T23:48:31;13.40;99.90
41557;DHT22;27720;51.992;5.890;2022-11-15T23:50:56;13.40;99.90
41557;DHT22;27720;51.992;5.890;2022-11-15T23:53:22;13.40;99.90
41557;DHT22;27720;51.992;5.890;2022-11-15T23:55:56;13.40;99.90
41557;DHT22;27720;51.992;5.890;2022-11-15T23:58:24;13.40;99.90
